sensor_id;sensor_type;location;lat;lon;timestamp;pressure;altitude;pressure_sealevel;temperature;humidity
61271;BME280;47150;53.032;8.960;2023-01-16T00:01:23;99648.50;;;8.47;100.00
61271;BME280;47150;53.032;8.960;2023-01-16T00:03:51;99647.88;;;8.36;100.00
61271;BME280;47150;53.032;8.960;2023-01-16T00:06:17;99652.03;;;8.10;100.00
61271;BME280;47150;53.032;8.960;2023-01-16T00:08:43;99649.06;;;8.24;100.00
61271;BME280;47150;53.032;8.960;2023-01-16T00:11:10;99648.03;;;8.30;100.00
61271;BME280;47150;53.032;8.960;2023-01-16T00:13:37;99646.06;;;8.05;100.00
61271;BME280;47150;53.032;8.960;2023-01-16T00:16:03;99633.59;;;8.15;100.00
61271;BME280;47150;53.032;8.960;2023-01-16T00:18:29;99642.84;;;7.94;100.00
61271;BME280;47150;53.032;8.960;2023-01-16T00:20:54;99631.13;;;8.43;100.00
61271;BME280;47150;53.032;8.960;2023-01-16T00:23:20;99627.28;;;8.57;100.00
61271;BME280;47150;53.032;8.960;2023-01-16T00:25:46;99635.22;;;8.54;100.00
61271;BME280;47150;53.032;8.960;2023-01-16T00:28:13;99618.03;;;8.10;100.00
61271;BME280;47150;53.032;8.960;2023-01-16T00:30:39;99619.25;;;8.30;100.00
61271;BME280;47150;53.032;8.960;2023-01-16T00:33:06;99620.59;;;8.46;100.00
61271;BME280;47150;53.032;8.960;2023-01-16T00:35:32;99612.69;;;8.13;100.00
61271;BME280;47150;53.032;8.960;2023-01-16T00:37:58;99607.81;;;7.99;100.00
61271;BME280;47150;53.032;8.960;2023-01-16T00:40:24;99619.69;;;8.47;100.00
61271;BME280;47150;53.032;8.960;2023-01-16T00:42:50;99613.09;;;8.64;100.00
61271;BME280;47150;53.032;8.960;2023-01-16T00:45:16;99616.09;;;8.51;100.00
61271;BME280;47150;53.032;8.960;2023-01-16T00:47:42;99607.75;;;8.35;100.00
61271;BME280;47150;53.032;8.960;2023-01-16T00:50:08;99606.88;;;8.68;100.00
61271;BME280;47150;53.032;8.960;2023-01-16T00:52:34;99594.81;;;8.62;100.00
61271;BME280;47150;53.032;8.960;2023-01-16T00:55:00;99587.75;;;8.33;100.00
61271;BME280;47150;53.032;8.960;2023-01-16T00:57:26;99599.22;;;8.62;100.00
61271;BME280;47150;53.032;8.960;2023-01-16T00:59:51;99586.31;;;8.56;100.00
61271;BME280;47150;53.032;8.960;2023-01-16T01:02:17;99583.34;;;8.66;100.00
61271;BME280;47150;53.032;8.960;2023-01-16T01:04:42;99577.06;;;8.72;100.00
61271;BME280;47150;53.032;8.960;2023-01-16T01:07:08;99571.34;;;8.59;100.00
61271;BME280;47150;53.032;8.960;2023-01-16T01:09:33;99565.25;;;8.89;100.00
61271;BME280;47150;53.032;8.960;2023-01-16T01:11:59;99565.34;;;8.85;100.00
61271;BME280;47150;53.032;8.960;2023-01-16T01:14:26;99560.16;;;8.84;100.00
61271;BME280;47150;53.032;8.960;2023-01-16T01:16:52;99554.56;;;9.23;100.00
61271;BME280;47150;53.032;8.960;2023-01-16T01:19:17;99554.00;;;8.55;100.00
61271;BME280;47150;53.032;8.960;2023-01-16T01:21:43;99551.13;;;8.64;100.00
61271;BME280;47150;53.032;8.960;2023-01-16T01:24:09;99544.53;;;8.81;100.00
61271;BME280;47150;53.032;8.960;2023-01-16T01:26:34;99535.50;;;9.19;100.00
61271;BME280;47150;53.032;8.960;2023-01-16T01:29:00;99529.84;;;9.03;100.00
61271;BME280;47150;53.032;8.960;2023-01-16T01:31:26;99519.59;;;9.24;100.00
61271;BME280;47150;53.032;8.960;2023-01-16T01:33:52;99515.69;;;9.09;100.00
61271;BME280;47150;53.032;8.960;2023-01-16T01:36:18;99512.69;;;8.65;100.00
61271;BME280;47150;53.032;8.960;2023-01-16T01:38:43;99506.28;;;9.30;100.00
61271;BME280;47150;53.032;8.960;2023-01-16T01:41:13;99505.25;;;8.81;100.00
61271;BME280;47150;53.032;8.960;2023-01-16T01:43:51;99498.75;;;8.64;100.00
61271;BME280;47150;53.032;8.960;2023-01-16T01:46:43;99506.84;;;8.85;100.00
61271;BME280;47150;53.032;8.960;2023-01-16T01:49:30;99504.72;;;9.25;100.00
61271;BME280;47150;53.032;8.960;2023-01-16T01:51:58;99490.56;;;9.03;100.00
61271;BME280;47150;53.032;8.960;2023-01-16T01:54:32;99489.41;;;8.84;100.00
61271;BME280;47150;53.032;8.960;2023-01-16T01:57:10;99490.81;;;8.94;100.00
61271;BME280;47150;53.032;8.960;2023-01-16T01:59:44;99480.50;;;8.90;100.00
61271;BME280;47150;53.032;8.960;2023-01-16T02:02:18;99477.00;;;9.17;100.00
61271;BME280;47150;53.032;8.960;2023-01-16T02:04:49;99468.41;;;8.57;100.00
61271;BME280;47150;53.032;8.960;2023-01-16T02:07:22;99471.34;;;8.75;100.00
61271;BME280;47150;53.032;8.960;2023-01-16T02:09:55;99471.50;;;8.70;100.00
61271;BME280;47150;53.032;8.960;2023-01-16T02:12:28;99472.03;;;9.08;100.00
61271;BME280;47150;53.032;8.960;2023-01-16T02:14:55;99455.63;;;8.75;100.00
61271;BME280;47150;53.032;8.960;2023-01-16T02:17:23;99465.84;;;9.11;100.00
61271;BME280;47150;53.032;8.960;2023-01-16T02:37:49;99437.69;;;8.91;100.00
61271;BME280;47150;53.032;8.960;2023-01-16T02:43:14;99424.88;;;8.23;100.00
61271;BME280;47150;53.032;8.960;2023-01-16T02:45:59;99425.09;;;9.02;100.00
61271;BME280;47150;53.032;8.960;2023-01-16T02:49:08;99415.28;;;8.22;100.00
61271;BME280;47150;53.032;8.960;2023-01-16T02:54:36;99395.03;;;8.59;100.00
61271;BME280;47150;53.032;8.960;2023-01-16T02:57:15;99401.78;;;8.66;100.00
61271;BME280;47150;53.032;8.960;2023-01-16T02:59:43;99390.81;;;8.81;100.00
61271;BME280;47150;53.032;8.960;2023-01-16T03:02:09;99389.09;;;8.80;100.00
61271;BME280;47150;53.032;8.960;2023-01-16T03:04:39;99385.63;;;9.07;100.00
61271;BME280;47150;53.032;8.960;2023-01-16T03:09:49;99373.78;;;8.68;100.00
61271;BME280;47150;53.032;8.960;2023-01-16T03:15:19;99371.53;;;7.97;100.00
61271;BME280;47150;53.032;8.960;2023-01-16T03:23:45;99354.00;;;8.01;100.00
61271;BME280;47150;53.032;8.960;2023-01-16T03:26:33;99352.69;;;7.86;100.00
61271;BME280;47150;53.032;8.960;2023-01-16T03:37:30;99334.25;;;7.61;100.00
61271;BME280;47150;53.032;8.960;2023-01-16T03:40:07;99333.75;;;7.48;100.00
61271;BME280;47150;53.032;8.960;2023-01-16T03:42:45;99331.63;;;7.29;100.00
61271;BME280;47150;53.032;8.960;2023-01-16T03:46:14;99323.34;;;7.46;100.00
61271;BME280;47150;53.032;8.960;2023-01-16T03:49:05;99321.56;;;7.78;100.00
61271;BME280;47150;53.032;8.960;2023-01-16T03:51:41;99315.75;;;7.04;100.00
61271;BME280;47150;53.032;8.960;2023-01-16T03:54:19;99306.69;;;7.49;100.00
61271;BME280;47150;53.032;8.960;2023-01-16T03:59:44;99301.78;;;7.38;100.00
61271;BME280;47150;53.032;8.960;2023-01-16T04:02:23;99305.22;;;7.07;100.00
61271;BME280;47150;53.032;8.960;2023-01-16T04:05:08;99306.69;;;7.18;100.00
61271;BME280;47150;53.032;8.960;2023-01-16T04:10:27;99283.69;;;7.62;100.00
61271;BME280;47150;53.032;8.960;2023-01-16T04:13:03;99291.22;;;7.71;100.00
61271;BME280;47150;53.032;8.960;2023-01-16T04:15:34;99294.25;;;7.57;100.00
61271;BME280;47150;53.032;8.960;2023-01-16T04:18:03;99286.56;;;7.53;100.00
61271;BME280;47150;53.032;8.960;2023-01-16T04:20:29;99289.13;;;7.54;100.00
61271;BME280;47150;53.032;8.960;2023-01-16T04:22:57;99269.78;;;7.60;100.00
61271;BME280;47150;53.032;8.960;2023-01-16T04:25:22;99272.66;;;7.80;100.00
61271;BME280;47150;53.032;8.960;2023-01-16T04:27:48;99267.81;;;7.38;100.00
61271;BME280;47150;53.032;8.960;2023-01-16T04:30:14;99263.22;;;7.46;100.00
61271;BME280;47150;53.032;8.960;2023-01-16T04:32:41;99268.72;;;7.67;100.00
61271;BME280;47150;53.032;8.960;2023-01-16T04:35:08;99261.19;;;7.84;100.00
61271;BME280;47150;53.032;8.960;2023-01-16T04:37:34;99268.66;;;7.69;100.00
61271;BME280;47150;53.032;8.960;2023-01-16T04:40:00;99250.94;;;7.78;100.00
61271;BME280;47150;53.032;8.960;2023-01-16T04:42:25;99246.59;;;7.77;100.00
61271;BME280;47150;53.032;8.960;2023-01-16T04:44:51;99225.25;;;7.63;100.00
61271;BME280;47150;53.032;8.960;2023-01-16T04:47:16;99224.03;;;8.03;100.00
61271;BME280;47150;53.032;8.960;2023-01-16T04:49:42;99205.16;;;7.35;100.00
61271;BME280;47150;53.032;8.960;2023-01-16T04:52:08;99212.13;;;7.64;100.00
61271;BME280;47150;53.032;8.960;2023-01-16T04:54:36;99204.44;;;8.15;100.00
61271;BME280;47150;53.032;8.960;2023-01-16T04:57:02;99204.59;;;8.37;100.00
61271;BME280;47150;53.032;8.960;2023-01-16T04:59:28;99199.56;;;7.47;100.00
61271;BME280;47150;53.032;8.960;2023-01-16T05:01:53;99198.28;;;7.61;100.00
61271;BME280;47150;53.032;8.960;2023-01-16T05:04:19;99203.72;;;7.55;100.00
61271;BME280;47150;53.032;8.960;2023-01-16T05:06:45;99192.06;;;7.37;100.00
61271;BME280;47150;53.032;8.960;2023-01-16T05:09:11;99195.22;;;7.48;100.00
61271;BME280;47150;53.032;8.960;2023-01-16T05:11:37;99185.88;;;7.39;100.00
61271;BME280;47150;53.032;8.960;2023-01-16T05:14:03;99190.97;;;7.44;100.00
61271;BME280;47150;53.032;8.960;2023-01-16T05:16:33;99188.63;;;7.35;100.00
61271;BME280;47150;53.032;8.960;2023-01-16T05:19:00;99182.34;;;7.40;100.00
61271;BME280;47150;53.032;8.960;2023-01-16T05:21:25;99186.00;;;7.64;100.00
61271;BME280;47150;53.032;8.960;2023-01-16T05:23:51;99175.59;;;7.61;100.00
61271;BME280;47150;53.032;8.960;2023-01-16T05:26:16;99177.63;;;8.08;100.00
61271;BME280;47150;53.032;8.960;2023-01-16T05:28:42;99172.94;;;8.45;100.00
61271;BME280;47150;53.032;8.960;2023-01-16T05:31:07;99174.91;;;8.11;100.00
61271;BME280;47150;53.032;8.960;2023-01-16T05:33:33;99171.50;;;8.34;100.00
61271;BME280;47150;53.032;8.960;2023-01-16T05:35:58;99167.72;;;7.91;100.00
61271;BME280;47150;53.032;8.960;2023-01-16T05:38:24;99167.59;;;7.94;100.00
61271;BME280;47150;53.032;8.960;2023-01-16T05:40:49;99162.53;;;8.42;100.00
61271;BME280;47150;53.032;8.960;2023-01-16T05:43:15;99157.88;;;8.77;100.00
61271;BME280;47150;53.032;8.960;2023-01-16T05:45:40;99154.19;;;8.05;100.00
61271;BME280;47150;53.032;8.960;2023-01-16T05:48:06;99150.25;;;8.44;100.00
61271;BME280;47150;53.032;8.960;2023-01-16T05:50:32;99143.00;;;8.00;100.00
61271;BME280;47150;53.032;8.960;2023-01-16T05:52:57;99136.88;;;8.01;100.00
61271;BME280;47150;53.032;8.960;2023-01-16T05:55:24;99135.94;;;7.75;100.00
61271;BME280;47150;53.032;8.960;2023-01-16T05:57:50;99129.31;;;8.18;100.00
61271;BME280;47150;53.032;8.960;2023-01-16T06:00:16;99132.72;;;8.21;100.00
61271;BME280;47150;53.032;8.960;2023-01-16T06:02:42;99126.53;;;8.23;100.00
61271;BME280;47150;53.032;8.960;2023-01-16T06:05:08;99127.50;;;8.21;100.00
61271;BME280;47150;53.032;8.960;2023-01-16T06:07:34;99119.91;;;8.13;100.00
61271;BME280;47150;53.032;8.960;2023-01-16T06:10:00;99105.19;;;8.61;100.00
61271;BME280;47150;53.032;8.960;2023-01-16T06:12:26;99103.03;;;8.22;100.00
61271;BME280;47150;53.032;8.960;2023-01-16T06:14:51;99105.97;;;8.12;100.00
61271;BME280;47150;53.032;8.960;2023-01-16T06:17:17;99103.97;;;8.44;100.00
61271;BME280;47150;53.032;8.960;2023-01-16T06:19:44;99092.16;;;8.59;100.00
61271;BME280;47150;53.032;8.960;2023-01-16T06:22:10;99098.75;;;7.94;100.00
61271;BME280;47150;53.032;8.960;2023-01-16T06:24:37;99089.59;;;8.07;100.00
61271;BME280;47150;53.032;8.960;2023-01-16T06:27:02;99094.81;;;8.07;100.00
61271;BME280;47150;53.032;8.960;2023-01-16T06:29:28;99089.53;;;8.34;100.00
61271;BME280;47150;53.032;8.960;2023-01-16T06:31:54;99083.81;;;8.23;100.00
61271;BME280;47150;53.032;8.960;2023-01-16T06:34:19;99080.84;;;8.33;100.00
61271;BME280;47150;53.032;8.960;2023-01-16T06:36:45;99085.25;;;8.57;100.00
61271;BME280;47150;53.032;8.960;2023-01-16T06:39:13;99075.81;;;8.76;100.00
61271;BME280;47150;53.032;8.960;2023-01-16T06:41:39;99079.00;;;8.84;100.00
61271;BME280;47150;53.032;8.960;2023-01-16T06:44:04;99065.38;;;8.26;100.00
61271;BME280;47150;53.032;8.960;2023-01-16T06:46:30;99071.41;;;7.77;100.00
61271;BME280;47150;53.032;8.960;2023-01-16T06:48:56;99070.72;;;8.23;100.00
61271;BME280;47150;53.032;8.960;2023-01-16T06:51:21;99068.47;;;8.37;100.00
61271;BME280;47150;53.032;8.960;2023-01-16T06:53:47;99066.00;;;8.09;100.00
61271;BME280;47150;53.032;8.960;2023-01-16T06:56:12;99068.13;;;8.48;100.00
61271;BME280;47150;53.032;8.960;2023-01-16T06:58:38;99052.09;;;8.57;100.00
61271;BME280;47150;53.032;8.960;2023-01-16T07:01:04;99052.81;;;9.07;100.00
61271;BME280;47150;53.032;8.960;2023-01-16T07:03:30;99044.34;;;8.78;100.00
61271;BME280;47150;53.032;8.960;2023-01-16T07:05:56;99045.56;;;7.93;100.00
61271;BME280;47150;53.032;8.960;2023-01-16T07:08:21;99038.41;;;7.98;100.00
61271;BME280;47150;53.032;8.960;2023-01-16T07:10:47;99043.34;;;7.82;100.00
61271;BME280;47150;53.032;8.960;2023-01-16T07:13:12;99045.28;;;7.49;100.00
61271;BME280;47150;53.032;8.960;2023-01-16T07:15:38;99040.22;;;7.44;100.00
61271;BME280;47150;53.032;8.960;2023-01-16T07:18:28;99038.47;;;6.90;100.00
61271;BME280;47150;53.032;8.960;2023-01-16T07:21:12;99033.84;;;7.26;100.00
61271;BME280;47150;53.032;8.960;2023-01-16T07:24:12;99037.72;;;6.56;100.00
61271;BME280;47150;53.032;8.960;2023-01-16T07:26:45;99041.66;;;6.99;100.00
61271;BME280;47150;53.032;8.960;2023-01-16T07:29:15;99030.63;;;6.90;100.00
61271;BME280;47150;53.032;8.960;2023-01-16T07:31:41;99040.56;;;7.33;100.00
61271;BME280;47150;53.032;8.960;2023-01-16T07:34:06;99028.03;;;7.45;100.00
61271;BME280;47150;53.032;8.960;2023-01-16T07:36:32;99023.25;;;7.58;100.00
61271;BME280;47150;53.032;8.960;2023-01-16T07:38:57;99017.50;;;7.73;100.00
61271;BME280;47150;53.032;8.960;2023-01-16T07:41:23;99015.47;;;7.81;100.00
61271;BME280;47150;53.032;8.960;2023-01-16T07:43:49;99012.50;;;7.67;100.00
61271;BME280;47150;53.032;8.960;2023-01-16T07:46:15;99006.19;;;7.19;100.00
61271;BME280;47150;53.032;8.960;2023-01-16T07:48:41;99004.84;;;7.61;100.00
61271;BME280;47150;53.032;8.960;2023-01-16T07:51:06;98998.13;;;8.28;100.00
61271;BME280;47150;53.032;8.960;2023-01-16T07:53:32;98995.81;;;8.20;100.00
61271;BME280;47150;53.032;8.960;2023-01-16T07:56:00;98984.25;;;7.77;100.00
61271;BME280;47150;53.032;8.960;2023-01-16T07:58:28;98982.84;;;8.17;100.00
61271;BME280;47150;53.032;8.960;2023-01-16T08:00:55;98969.59;;;8.22;100.00
61271;BME280;47150;53.032;8.960;2023-01-16T08:03:23;98971.81;;;8.32;100.00
61271;BME280;47150;53.032;8.960;2023-01-16T08:05:49;98960.97;;;8.18;100.00
61271;BME280;47150;53.032;8.960;2023-01-16T08:08:16;98953.91;;;8.45;100.00
61271;BME280;47150;53.032;8.960;2023-01-16T08:10:42;98946.94;;;7.97;100.00
61271;BME280;47150;53.032;8.960;2023-01-16T08:13:20;98946.59;;;8.30;100.00
61271;BME280;47150;53.032;8.960;2023-01-16T08:15:45;98948.38;;;7.80;100.00
61271;BME280;47150;53.032;8.960;2023-01-16T08:18:11;98940.78;;;7.74;100.00
61271;BME280;47150;53.032;8.960;2023-01-16T08:20:37;98932.75;;;8.26;100.00
61271;BME280;47150;53.032;8.960;2023-01-16T08:23:03;98935.88;;;8.36;100.00
61271;BME280;47150;53.032;8.960;2023-01-16T08:25:28;98927.38;;;8.55;100.00
61271;BME280;47150;53.032;8.960;2023-01-16T08:27:54;98912.03;;;7.98;100.00
61271;BME280;47150;53.032;8.960;2023-01-16T08:30:19;98912.16;;;7.93;100.00
61271;BME280;47150;53.032;8.960;2023-01-16T08:32:45;98911.28;;;8.64;100.00
61271;BME280;47150;53.032;8.960;2023-01-16T08:35:11;98900.72;;;8.45;100.00
61271;BME280;47150;53.032;8.960;2023-01-16T08:37:36;98899.63;;;8.27;100.00
61271;BME280;47150;53.032;8.960;2023-01-16T08:40:02;98890.28;;;7.72;100.00
61271;BME280;47150;53.032;8.960;2023-01-16T08:42:31;98884.34;;;7.92;100.00
61271;BME280;47150;53.032;8.960;2023-01-16T08:45:15;98884.63;;;7.59;100.00
61271;BME280;47150;53.032;8.960;2023-01-16T08:47:59;98883.81;;;8.06;100.00
61271;BME280;47150;53.032;8.960;2023-01-16T08:50:45;98876.13;;;8.25;100.00
61271;BME280;47150;53.032;8.960;2023-01-16T08:53:31;98875.41;;;7.98;100.00
61271;BME280;47150;53.032;8.960;2023-01-16T08:55:57;98870.84;;;7.79;100.00
61271;BME280;47150;53.032;8.960;2023-01-16T08:58:22;98862.66;;;7.89;100.00
61271;BME280;47150;53.032;8.960;2023-01-16T09:00:49;98866.41;;;7.58;100.00
61271;BME280;47150;53.032;8.960;2023-01-16T09:03:15;98856.63;;;8.10;100.00
61271;BME280;47150;53.032;8.960;2023-01-16T09:05:44;98852.88;;;7.94;100.00
61271;BME280;47150;53.032;8.960;2023-01-16T09:08:10;98849.16;;;8.23;100.00
61271;BME280;47150;53.032;8.960;2023-01-16T09:10:36;98850.97;;;7.99;100.00
61271;BME280;47150;53.032;8.960;2023-01-16T09:13:02;98843.22;;;8.64;100.00
61271;BME280;47150;53.032;8.960;2023-01-16T09:15:47;98833.25;;;7.82;100.00
61271;BME280;47150;53.032;8.960;2023-01-16T09:18:13;98828.34;;;8.20;100.00
61271;BME280;47150;53.032;8.960;2023-01-16T09:20:38;98832.31;;;7.84;100.00
61271;BME280;47150;53.032;8.960;2023-01-16T09:23:04;98832.28;;;8.08;100.00
61271;BME280;47150;53.032;8.960;2023-01-16T09:25:31;98823.81;;;8.01;100.00
61271;BME280;47150;53.032;8.960;2023-01-16T09:27:59;98823.25;;;8.17;100.00
61271;BME280;47150;53.032;8.960;2023-01-16T09:30:26;98817.69;;;8.69;100.00
61271;BME280;47150;53.032;8.960;2023-01-16T09:32:53;98806.13;;;8.08;100.00
61271;BME280;47150;53.032;8.960;2023-01-16T09:35:24;98808.63;;;8.78;100.00
61271;BME280;47150;53.032;8.960;2023-01-16T09:37:49;98808.97;;;8.02;100.00
61271;BME280;47150;53.032;8.960;2023-01-16T09:40:21;98796.47;;;8.10;100.00
61271;BME280;47150;53.032;8.960;2023-01-16T09:43:13;98791.38;;;8.93;100.00
61271;BME280;47150;53.032;8.960;2023-01-16T09:46:12;98784.72;;;9.06;100.00
61271;BME280;47150;53.032;8.960;2023-01-16T09:48:58;98771.16;;;9.17;100.00
61271;BME280;47150;53.032;8.960;2023-01-16T09:51:34;98772.47;;;9.46;100.00
61271;BME280;47150;53.032;8.960;2023-01-16T09:54:39;98769.72;;;8.89;100.00
61271;BME280;47150;53.032;8.960;2023-01-16T09:57:31;98768.38;;;9.41;100.00
61271;BME280;47150;53.032;8.960;2023-01-16T10:00:22;98755.84;;;9.66;100.00
61271;BME280;47150;53.032;8.960;2023-01-16T10:02:52;98748.91;;;8.65;100.00
61271;BME280;47150;53.032;8.960;2023-01-16T10:05:18;98737.53;;;9.27;100.00
61271;BME280;47150;53.032;8.960;2023-01-16T10:10:44;98717.47;;;8.86;100.00
61271;BME280;47150;53.032;8.960;2023-01-16T10:13:26;98705.34;;;8.42;100.00
61271;BME280;47150;53.032;8.960;2023-01-16T10:16:34;98714.25;;;9.00;100.00
61271;BME280;47150;53.032;8.960;2023-01-16T10:28:03;98687.72;;;9.27;100.00
61271;BME280;47150;53.032;8.960;2023-01-16T10:34:03;98668.31;;;9.50;100.00
61271;BME280;47150;53.032;8.960;2023-01-16T10:36:39;98664.84;;;9.11;100.00
61271;BME280;47150;53.032;8.960;2023-01-16T10:39:11;98657.69;;;9.15;100.00
61271;BME280;47150;53.032;8.960;2023-01-16T10:41:41;98649.69;;;9.18;100.00
61271;BME280;47150;53.032;8.960;2023-01-16T10:44:50;98641.19;;;10.05;100.00
61271;BME280;47150;53.032;8.960;2023-01-16T10:47:44;98624.41;;;9.17;100.00
61271;BME280;47150;53.032;8.960;2023-01-16T10:50:29;98618.88;;;9.42;100.00
61271;BME280;47150;53.032;8.960;2023-01-16T10:52:55;98617.28;;;10.29;100.00
61271;BME280;47150;53.032;8.960;2023-01-16T10:55:22;98605.75;;;9.42;100.00
61271;BME280;47150;53.032;8.960;2023-01-16T10:57:53;98592.63;;;9.79;100.00
61271;BME280;47150;53.032;8.960;2023-01-16T11:00:27;98585.16;;;10.41;100.00
61271;BME280;47150;53.032;8.960;2023-01-16T11:03:08;98576.59;;;10.71;100.00
61271;BME280;47150;53.032;8.960;2023-01-16T11:05:39;98572.66;;;10.29;100.00
61271;BME280;47150;53.032;8.960;2023-01-16T11:08:10;98565.38;;;10.51;100.00
61271;BME280;47150;53.032;8.960;2023-01-16T11:10:42;98551.69;;;9.76;100.00
61271;BME280;47150;53.032;8.960;2023-01-16T11:13:28;98554.44;;;9.73;100.00
61271;BME280;47150;53.032;8.960;2023-01-16T11:16:22;98547.41;;;9.56;100.00
61271;BME280;47150;53.032;8.960;2023-01-16T11:19:26;98542.34;;;9.34;100.00
61271;BME280;47150;53.032;8.960;2023-01-16T11:21:55;98535.75;;;10.14;100.00
61271;BME280;47150;53.032;8.960;2023-01-16T11:24:39;98516.81;;;9.74;100.00
61271;BME280;47150;53.032;8.960;2023-01-16T11:27:07;98509.50;;;9.27;100.00
61271;BME280;47150;53.032;8.960;2023-01-16T11:29:41;98505.38;;;9.40;100.00
61271;BME280;47150;53.032;8.960;2023-01-16T11:32:11;98497.97;;;9.31;100.00
61271;BME280;47150;53.032;8.960;2023-01-16T11:34:45;98499.53;;;8.79;100.00
61271;BME280;47150;53.032;8.960;2023-01-16T11:37:16;98483.00;;;9.50;100.00
61271;BME280;47150;53.032;8.960;2023-01-16T11:39:47;98481.06;;;9.89;100.00
61271;BME280;47150;53.032;8.960;2023-01-16T11:42:16;98472.84;;;9.79;100.00
61271;BME280;47150;53.032;8.960;2023-01-16T11:45:13;98459.38;;;10.03;100.00
61271;BME280;47150;53.032;8.960;2023-01-16T11:48:01;98459.31;;;9.87;100.00
61271;BME280;47150;53.032;8.960;2023-01-16T11:51:12;98446.09;;;8.83;100.00
61271;BME280;47150;53.032;8.960;2023-01-16T11:53:39;98435.13;;;9.98;100.00
61271;BME280;47150;53.032;8.960;2023-01-16T11:59:44;98422.22;;;9.77;100.00
61271;BME280;47150;53.032;8.960;2023-01-16T12:05:18;98404.59;;;8.93;100.00
61271;BME280;47150;53.032;8.960;2023-01-16T12:08:49;98408.41;;;9.40;100.00
61271;BME280;47150;53.032;8.960;2023-01-16T12:12:02;98396.59;;;9.14;100.00
61271;BME280;47150;53.032;8.960;2023-01-16T12:15:05;98387.72;;;9.85;100.00
61271;BME280;47150;53.032;8.960;2023-01-16T12:18:16;98378.84;;;9.54;100.00
61271;BME280;47150;53.032;8.960;2023-01-16T12:21:38;98370.22;;;9.17;100.00
61271;BME280;47150;53.032;8.960;2023-01-16T12:27:15;98354.13;;;9.07;100.00
61271;BME280;47150;53.032;8.960;2023-01-16T12:30:22;98344.41;;;9.27;100.00
61271;BME280;47150;53.032;8.960;2023-01-16T12:33:09;98343.69;;;9.74;100.00
61271;BME280;47150;53.032;8.960;2023-01-16T12:38:27;98317.06;;;9.82;100.00
61271;BME280;47150;53.032;8.960;2023-01-16T12:41:22;98307.44;;;8.98;100.00
61271;BME280;47150;53.032;8.960;2023-01-16T13:00:03;98249.38;;;10.67;100.00
61271;BME280;47150;53.032;8.960;2023-01-16T13:02:57;98246.03;;;9.37;100.00
61271;BME280;47150;53.032;8.960;2023-01-16T13:05:35;98239.09;;;10.48;100.00
61271;BME280;47150;53.032;8.960;2023-01-16T13:11:11;98225.09;;;9.85;100.00
61271;BME280;47150;53.032;8.960;2023-01-16T13:14:04;98224.59;;;9.62;100.00
61271;BME280;47150;53.032;8.960;2023-01-16T13:16:46;98208.31;;;9.24;100.00
61271;BME280;47150;53.032;8.960;2023-01-16T13:19:23;98203.59;;;9.78;100.00
61271;BME280;47150;53.032;8.960;2023-01-16T13:22:02;98205.22;;;10.27;100.00
61271;BME280;47150;53.032;8.960;2023-01-16T13:24:46;98200.16;;;10.40;100.00
61271;BME280;47150;53.032;8.960;2023-01-16T13:27:45;98187.78;;;9.96;100.00
61271;BME280;47150;53.032;8.960;2023-01-16T13:30:18;98196.25;;;10.31;100.00
61271;BME280;47150;53.032;8.960;2023-01-16T13:32:50;98182.41;;;9.17;100.00
61271;BME280;47150;53.032;8.960;2023-01-16T13:41:57;98173.81;;;9.63;100.00
61271;BME280;47150;53.032;8.960;2023-01-16T13:44:30;98168.56;;;9.15;100.00
61271;BME280;47150;53.032;8.960;2023-01-16T13:47:24;98171.19;;;9.31;100.00
61271;BME280;47150;53.032;8.960;2023-01-16T13:50:00;98164.53;;;9.58;100.00
61271;BME280;47150;53.032;8.960;2023-01-16T13:52:47;98181.22;;;9.07;100.00
61271;BME280;47150;53.032;8.960;2023-01-16T13:55:34;98178.28;;;8.80;100.00
61271;BME280;47150;53.032;8.960;2023-01-16T13:58:10;98174.56;;;8.84;100.00
61271;BME280;47150;53.032;8.960;2023-01-16T14:00:45;98173.38;;;9.23;100.00
61271;BME280;47150;53.032;8.960;2023-01-16T14:03:31;98163.16;;;9.18;100.00
61271;BME280;47150;53.032;8.960;2023-01-16T14:08:46;98172.84;;;8.67;100.00
61271;BME280;47150;53.032;8.960;2023-01-16T14:21:01;98160.13;;;7.88;100.00
61271;BME280;47150;53.032;8.960;2023-01-16T14:23:29;98154.63;;;8.29;100.00
61271;BME280;47150;53.032;8.960;2023-01-16T14:26:44;98158.16;;;8.80;100.00
61271;BME280;47150;53.032;8.960;2023-01-16T14:29:20;98160.97;;;8.07;100.00
61271;BME280;47150;53.032;8.960;2023-01-16T14:31:56;98141.63;;;8.27;100.00
61271;BME280;47150;53.032;8.960;2023-01-16T14:34:34;98153.25;;;8.04;100.00
61271;BME280;47150;53.032;8.960;2023-01-16T14:45:30;98111.22;;;8.60;100.00
61271;BME280;47150;53.032;8.960;2023-01-16T14:56:48;98098.53;;;8.85;100.00
61271;BME280;47150;53.032;8.960;2023-01-16T14:59:27;98094.56;;;8.94;100.00
61271;BME280;47150;53.032;8.960;2023-01-16T15:02:11;98093.94;;;8.73;100.00
61271;BME280;47150;53.032;8.960;2023-01-16T15:10:09;98063.94;;;8.29;100.00
61271;BME280;47150;53.032;8.960;2023-01-16T15:12:39;98059.03;;;8.57;100.00
61271;BME280;47150;53.032;8.960;2023-01-16T15:15:25;98060.09;;;8.70;100.00
61271;BME280;47150;53.032;8.960;2023-01-16T15:17:56;98057.47;;;8.70;100.00
61271;BME280;47150;53.032;8.960;2023-01-16T15:20:44;98057.16;;;8.25;100.00
61271;BME280;47150;53.032;8.960;2023-01-16T15:23:36;98048.75;;;8.54;100.00
61271;BME280;47150;53.032;8.960;2023-01-16T15:30:59;98040.94;;;9.17;100.00
61271;BME280;47150;53.032;8.960;2023-01-16T15:33:32;98040.44;;;8.28;100.00
61271;BME280;47150;53.032;8.960;2023-01-16T15:38:57;98036.66;;;8.51;100.00
61271;BME280;47150;53.032;8.960;2023-01-16T15:41:28;98029.28;;;8.75;100.00
61271;BME280;47150;53.032;8.960;2023-01-16T15:44:17;98018.72;;;8.43;100.00
61271;BME280;47150;53.032;8.960;2023-01-16T15:52:34;98015.25;;;8.09;100.00
61271;BME280;47150;53.032;8.960;2023-01-16T15:55:15;98011.00;;;8.24;100.00
61271;BME280;47150;53.032;8.960;2023-01-16T15:58:13;98004.06;;;8.57;100.00
61271;BME280;47150;53.032;8.960;2023-01-16T16:00:41;98000.19;;;8.64;100.00
61271;BME280;47150;53.032;8.960;2023-01-16T16:03:17;98005.63;;;8.10;100.00